Time;durP1;ratioP1;P1;durP2;ratioP2;P2;SDS_P1;SDS_P2;PMS_P1;PMS_P2;Temp;Humidity;BMP_temperature;BMP_pressure;BME280_temperature;BME280_humidity;BME280_pressure;Samples;Min_cycle;Max_cycle;Signal;HPM_P1;HPM_P2
2023/08/06 00:00:42;;;;;;;7.27;6.17;;;;;;;;;;5094540;28;20662;-88
2023/08/06 00:03:09;;;;;;;6.03;5.43;;;;;;;;;;5092962;28;20208;-90
2023/08/06 00:05:35;;;;;;;6.97;6.27;;;;;;;;;;5092786;28;20192;-89
2023/08/06 00:08:04;;;;;;;6.83;5.47;;;;;;;;;;5093169;28;20196;-91
2023/08/06 00:10:31;;;;;;;6.17;5.23;;;;;;;;;;5092792;28;20628;-88
2023/08/06 00:12:57;;;;;;;6.80;6.20;;;;;;;;;;5093020;28;20640;-89
2023/08/06 00:15:24;;;;;;;6.83;5.73;;;;;;;;;;5093260;28;20207;-89
2023/08/06 00:17:51;;;;;;;6.60;5.97;;;;;;;;;;5107465;28;20248;-89
2023/08/06 00:20:18;;;;;;;6.53;5.83;;;;;;;;;;5094494;28;20669;-89
2023/08/06 00:22:45;;;;;;;6.03;5.53;;;;;;;;;;5096869;28;20268;-90
2023/08/06 00:25:13;;;;;;;9.10;6.30;;;;;;;;;;5112455;28;20196;-86
2023/08/06 00:27:40;;;;;;;6.87;6.03;;;;;;;;;;5112441;28;20208;-89
2023/08/06 00:30:08;;;;;;;6.27;5.50;;;;;;;;;;5112728;28;20199;-91
2023/08/06 00:32:34;;;;;;;5.73;5.17;;;;;;;;;;5113274;28;20219;-91
2023/08/06 00:35:01;;;;;;;6.60;5.63;;;;;;;;;;5107908;28;20678;-88
2023/08/06 00:37:28;;;;;;;7.37;6.43;;;;;;;;;;5093621;28;20219;-87
2023/08/06 00:39:55;;;;;;;6.00;5.50;;;;;;;;;;5096651;28;20215;-89
2023/08/06 00:42:23;;;;;;;8.10;5.70;;;;;;;;;;5096258;28;20207;-89
2023/08/06 00:44:50;;;;;;;6.90;5.90;;;;;;;;;;5109682;28;20200;-90
2023/08/06 00:47:17;;;;;;;8.33;6.77;;;;;;;;;;5116373;28;20666;-89
2023/08/06 00:49:44;;;;;;;7.33;6.63;;;;;;;;;;5116603;28;20290;-90
2023/08/06 00:52:13;;;;;;;10.80;7.33;;;;;;;;;;5117057;28;20227;-89
2023/08/06 00:54:39;;;;;;;6.93;6.33;;;;;;;;;;5111457;28;20218;-89
2023/08/06 00:57:08;;;;;;;7.80;6.57;;;;;;;;;;5112998;28;20202;-89
2023/08/06 00:59:36;;;;;;;7.37;5.87;;;;;;;;;;5098666;28;20196;-90
2023/08/06 01:02:03;;;;;;;8.17;7.13;;;;;;;;;;5116446;28;20191;-89
2023/08/06 01:04:30;;;;;;;7.70;7.00;;;;;;;;;;5116493;28;20207;-89
2023/08/06 01:07:04;;;;;;;6.70;5.93;;;;;;;;;;5116699;28;20195;-88
2023/08/06 01:09:37;;;;;;;6.93;6.23;;;;;;;;;;5116453;28;20231;-90
2023/08/06 01:12:08;;;;;;;6.77;6.17;;;;;;;;;;5116500;28;20275;-90
2023/08/06 01:14:45;;;;;;;8.00;6.60;;;;;;;;;;5116425;28;20191;-89
2023/08/06 01:17:13;;;;;;;7.30;6.20;;;;;;;;;;5116335;28;20259;-89
2023/08/06 01:19:40;;;;;;;7.30;6.70;;;;;;;;;;5115615;28;20702;-89
2023/08/06 01:22:08;;;;;;;7.40;6.63;;;;;;;;;;5115249;28;20184;-90
2023/08/06 01:24:34;;;;;;;9.33;6.90;;;;;;;;;;5103140;28;20196;-90
2023/08/06 01:27:05;;;;;;;8.10;6.93;;;;;;;;;;5095786;28;20204;-89
2023/08/06 01:29:36;;;;;;;6.80;6.20;;;;;;;;;;5095353;28;20687;-89
2023/08/06 01:32:03;;;;;;;7.77;7.17;;;;;;;;;;5109653;28;20219;-88
2023/08/06 01:34:32;;;;;;;8.07;7.27;;;;;;;;;;5095570;28;20204;-87
2023/08/06 01:37:01;;;;;;;7.40;6.80;;;;;;;;;;5094031;28;20200;-88
2023/08/06 01:39:29;;;;;;;8.33;7.53;;;;;;;;;;5111923;28;20192;-89
2023/08/06 01:41:56;;;;;;;8.77;6.73;;;;;;;;;;5115923;28;20614;-89
2023/08/06 01:44:23;;;;;;;8.87;7.77;;;;;;;;;;5114519;28;20203;-90
2023/08/06 01:46:49;;;;;;;8.77;6.70;;;;;;;;;;5116037;28;20199;-90
2023/08/06 01:49:16;;;;;;;8.33;7.60;;;;;;;;;;5115808;28;20195;-90
2023/08/06 01:51:43;;;;;;;8.27;7.30;;;;;;;;;;5116092;28;20224;-91
2023/08/06 01:54:10;;;;;;;7.37;6.67;;;;;;;;;;5114121;28;20624;-92
2023/08/06 01:56:38;;;;;;;8.43;6.80;;;;;;;;;;5115441;28;20203;-88
2023/08/06 01:59:05;;;;;;;7.97;7.27;;;;;;;;;;5106532;28;20573;-91
2023/08/06 02:01:31;;;;;;;8.70;6.20;;;;;;;;;;5096699;28;20669;-90
2023/08/06 02:03:58;;;;;;;7.17;6.57;;;;;;;;;;5108039;28;20204;-90
2023/08/06 02:06:25;;;;;;;7.30;6.10;;;;;;;;;;5094987;28;20196;-89
2023/08/06 02:08:52;;;;;;;6.70;6.10;;;;;;;;;;5093514;28;20203;-89
2023/08/06 02:11:19;;;;;;;6.33;5.73;;;;;;;;;;5094546;28;20200;-89
2023/08/06 02:13:48;;;;;;;6.43;5.90;;;;;;;;;;5094173;28;20285;-89
2023/08/06 02:16:15;;;;;;;7.47;6.67;;;;;;;;;;5094549;28;20196;-89
2023/08/06 02:18:41;;;;;;;7.10;5.77;;;;;;;;;;5095245;28;20208;-89
2023/08/06 02:21:08;;;;;;;6.23;5.70;;;;;;;;;;5094612;28;20700;-90
2023/08/06 02:23:35;;;;;;;6.57;5.97;;;;;;;;;;5094260;28;20624;-89
2023/08/06 02:26:02;;;;;;;6.93;6.33;;;;;;;;;;5093657;28;20200;-90
2023/08/06 02:28:29;;;;;;;6.67;6.00;;;;;;;;;;5094530;28;20258;-90
2023/08/06 02:30:58;;;;;;;6.77;6.17;;;;;;;;;;5094884;28;20598;-91
2023/08/06 02:33:24;;;;;;;6.87;6.10;;;;;;;;;;5095061;28;20227;-89
2023/08/06 02:35:51;;;;;;;6.33;5.83;;;;;;;;;;5107692;28;20207;-89
2023/08/06 02:38:18;;;;;;;6.77;6.10;;;;;;;;;;5096439;28;20204;-90
2023/08/06 02:40:45;;;;;;;7.40;5.83;;;;;;;;;;5094321;28;20192;-90
2023/08/06 02:43:12;;;;;;;6.63;5.93;;;;;;;;;;5093165;28;20200;-89
2023/08/06 02:45:39;;;;;;;9.77;6.27;;;;;;;;;;5095518;28;20200;-91
2023/08/06 02:48:07;;;;;;;8.17;6.63;;;;;;;;;;5105021;28;20210;-91
2023/08/06 02:50:39;;;;;;;9.10;6.30;;;;;;;;;;5115071;28;20199;-91
2023/08/06 02:53:06;;;;;;;7.40;6.17;;;;;;;;;;5114436;28;20254;-90
2023/08/06 02:55:33;;;;;;;6.70;6.03;;;;;;;;;;5097732;28;20227;-91
2023/08/06 02:58:00;;;;;;;7.03;6.27;;;;;;;;;;5093982;28;20273;-90
2023/08/06 03:00:27;;;;;;;6.90;6.17;;;;;;;;;;5091996;28;20193;-90
2023/08/06 03:02:54;;;;;;;8.80;6.67;;;;;;;;;;5093883;28;20204;-90
2023/08/06 03:05:22;;;;;;;7.47;6.77;;;;;;;;;;5095109;28;20196;-90
2023/08/06 03:07:49;;;;;;;7.83;6.97;;;;;;;;;;5099085;28;20204;-90
2023/08/06 03:10:16;;;;;;;6.47;6.07;;;;;;;;;;5093474;28;20197;-90
2023/08/06 03:12:43;;;;;;;7.23;6.37;;;;;;;;;;5093243;28;20223;-89
2023/08/06 03:15:10;;;;;;;9.17;6.53;;;;;;;;;;5108387;28;20200;-90
2023/08/06 03:17:37;;;;;;;8.37;6.50;;;;;;;;;;5114484;28;20232;-89
2023/08/06 03:20:04;;;;;;;10.37;7.67;;;;;;;;;;5113675;28;20192;-89
2023/08/06 03:22:33;;;;;;;8.00;6.70;;;;;;;;;;5113431;28;20191;-89
2023/08/06 03:24:59;;;;;;;12.47;8.00;;;;;;;;;;5096751;28;20196;-89
2023/08/06 03:27:26;;;;;;;7.03;6.47;;;;;;;;;;5093241;28;20200;-90
2023/08/06 03:29:53;;;;;;;7.50;6.63;;;;;;;;;;5109177;28;20256;-89
2023/08/06 03:32:20;;;;;;;10.07;6.70;;;;;;;;;;5113856;28;20196;-89
2023/08/06 03:34:47;;;;;;;7.07;6.43;;;;;;;;;;5112162;28;20199;-89
2023/08/06 03:37:13;;;;;;;6.50;5.87;;;;;;;;;;5113151;28;20261;-89
2023/08/06 03:39:42;;;;;;;8.57;6.33;;;;;;;;;;5103855;28;20187;-89
2023/08/06 03:42:08;;;;;;;6.87;6.17;;;;;;;;;;5095842;28;20682;-89
2023/08/06 03:44:35;;;;;;;7.97;7.10;;;;;;;;;;5111931;28;20199;-88
2023/08/06 03:47:02;;;;;;;7.47;6.77;;;;;;;;;;5105732;28;20207;-88
2023/08/06 03:49:29;;;;;;;8.90;8.00;;;;;;;;;;5097860;28;20199;-88
2023/08/06 03:51:55;;;;;;;7.27;6.63;;;;;;;;;;5098803;28;20233;-88
2023/08/06 03:54:22;;;;;;;7.67;7.03;;;;;;;;;;5112554;28;20230;-88
2023/08/06 03:56:50;;;;;;;7.10;6.60;;;;;;;;;;5111470;28;20672;-87
2023/08/06 03:59:17;;;;;;;8.10;6.90;;;;;;;;;;5112326;28;20244;-87
2023/08/06 04:01:44;;;;;;;8.07;7.33;;;;;;;;;;5112596;28;20603;-90
2023/08/06 04:04:11;;;;;;;8.20;7.50;;;;;;;;;;5111412;28;20202;-79
2023/08/06 04:06:37;;;;;;;7.90;7.20;;;;;;;;;;5112398;28;20195;-80
2023/08/06 04:09:04;;;;;;;8.17;7.57;;;;;;;;;;5112229;28;20191;-80
2023/08/06 04:11:31;;;;;;;11.07;7.67;;;;;;;;;;5098146;28;20618;-80
2023/08/06 04:13:59;;;;;;;8.87;8.03;;;;;;;;;;5101275;28;20219;-80
2023/08/06 04:16:27;;;;;;;9.53;8.03;;;;;;;;;;5113999;28;20199;-80
2023/08/06 04:18:55;;;;;;;9.13;7.43;;;;;;;;;;5116079;28;20198;-80
2023/08/06 04:21:22;;;;;;;10.57;7.23;;;;;;;;;;5114397;28;20654;-80
2023/08/06 04:23:48;;;;;;;8.30;7.50;;;;;;;;;;5114395;28;20198;-80
2023/08/06 04:26:15;;;;;;;8.47;7.67;;;;;;;;;;5115887;28;20207;-80
2023/08/06 04:28:42;;;;;;;8.83;7.27;;;;;;;;;;5116171;28;20221;-79
2023/08/06 04:31:10;;;;;;;8.37;7.57;;;;;;;;;;5102161;28;20626;-80
2023/08/06 04:33:37;;;;;;;8.23;7.53;;;;;;;;;;5094385;28;20226;-80
2023/08/06 04:36:04;;;;;;;9.30;7.67;;;;;;;;;;5100453;28;20198;-80
2023/08/06 04:38:31;;;;;;;10.97;7.00;;;;;;;;;;5115984;28;20203;-80
2023/08/06 04:40:58;;;;;;;9.87;7.90;;;;;;;;;;5114389;28;20199;-80
2023/08/06 04:43:25;;;;;;;11.07;8.77;;;;;;;;;;5103267;28;20206;-80
2023/08/06 04:45:54;;;;;;;7.70;6.90;;;;;;;;;;5102282;28;20197;-80
2023/08/06 04:48:23;;;;;;;8.93;8.03;;;;;;;;;;5096228;28;20200;-81
2023/08/06 04:50:50;;;;;;;7.77;7.00;;;;;;;;;;5114400;28;20234;-80
2023/08/06 04:53:17;;;;;;;9.77;7.37;;;;;;;;;;5114881;28;20634;-80
2023/08/06 04:55:44;;;;;;;7.53;6.83;;;;;;;;;;5115790;28;20206;-80
2023/08/06 04:58:11;;;;;;;7.67;6.80;;;;;;;;;;5115257;28;20206;-80
2023/08/06 05:00:39;;;;;;;9.97;7.17;;;;;;;;;;5115352;28;20203;-82
2023/08/06 05:03:07;;;;;;;10.37;7.27;;;;;;;;;;5109313;28;20195;-80
2023/08/06 05:05:35;;;;;;;7.67;7.00;;;;;;;;;;5108540;28;20242;-79
2023/08/06 05:08:02;;;;;;;7.37;6.77;;;;;;;;;;5111311;28;20202;-79
2023/08/06 05:10:29;;;;;;;6.37;5.87;;;;;;;;;;5101208;28;20632;-80
2023/08/06 05:12:56;;;;;;;7.43;6.70;;;;;;;;;;5093978;28;20204;-80
2023/08/06 05:15:25;;;;;;;7.23;6.30;;;;;;;;;;5096503;28;20563;-80
2023/08/06 05:17:51;;;;;;;7.53;6.73;;;;;;;;;;5108727;28;20188;-80
2023/08/06 05:20:18;;;;;;;6.47;5.87;;;;;;;;;;5102309;28;20192;-80
2023/08/06 05:22:46;;;;;;;8.00;5.63;;;;;;;;;;5114146;28;20211;-79
2023/08/06 05:25:14;;;;;;;7.80;6.63;;;;;;;;;;5108918;28;20212;-79
2023/08/06 05:27:41;;;;;;;7.70;6.50;;;;;;;;;;5094552;28;20203;-79
2023/08/06 05:30:10;;;;;;;8.60;6.73;;;;;;;;;;5107897;28;20196;-80
2023/08/06 05:32:36;;;;;;;7.83;6.53;;;;;;;;;;5104403;28;20613;-80
2023/08/06 05:35:03;;;;;;;9.87;6.33;;;;;;;;;;5111163;28;20223;-79
2023/08/06 05:37:30;;;;;;;7.40;6.73;;;;;;;;;;5112998;28;20238;-79
2023/08/06 05:39:58;;;;;;;7.33;6.57;;;;;;;;;;5104967;28;20200;-79
2023/08/06 05:42:25;;;;;;;10.17;7.23;;;;;;;;;;5093964;28;20574;-80
2023/08/06 05:44:52;;;;;;;6.40;5.90;;;;;;;;;;5092661;28;20200;-79
2023/08/06 05:47:19;;;;;;;8.50;6.50;;;;;;;;;;5104491;28;20206;-79
2023/08/06 05:49:46;;;;;;;11.03;6.90;;;;;;;;;;5113021;28;20260;-79
2023/08/06 05:52:13;;;;;;;7.40;6.70;;;;;;;;;;5094901;28;20232;-79
2023/08/06 05:54:42;;;;;;;7.97;6.40;;;;;;;;;;5114588;28;20222;-78
2023/08/06 05:57:10;;;;;;;7.47;6.53;;;;;;;;;;5110401;28;20278;-79
2023/08/06 05:59:37;;;;;;;6.87;6.27;;;;;;;;;;5107330;28;20192;-79
2023/08/06 06:02:05;;;;;;;8.17;6.60;;;;;;;;;;5093904;28;20203;-79
2023/08/06 06:04:31;;;;;;;6.67;6.07;;;;;;;;;;5113929;28;20669;-78
2023/08/06 06:06:58;;;;;;;7.30;5.80;;;;;;;;;;5114354;28;20199;-79
2023/08/06 06:09:25;;;;;;;7.50;6.47;;;;;;;;;;5112127;28;20199;-79
2023/08/06 06:11:52;;;;;;;11.00;6.43;;;;;;;;;;5098912;28;20683;-78
2023/08/06 06:14:20;;;;;;;8.73;7.27;;;;;;;;;;5093401;28;20224;-78
2023/08/06 06:16:47;;;;;;;7.23;6.20;;;;;;;;;;5104518;28;20575;-78
2023/08/06 06:19:14;;;;;;;7.23;6.20;;;;;;;;;;5114385;28;20203;-78
2023/08/06 06:21:41;;;;;;;9.33;6.93;;;;;;;;;;5113775;28;20575;-79
2023/08/06 06:24:08;;;;;;;6.87;6.17;;;;;;;;;;5111181;28;20195;-80
2023/08/06 06:26:34;;;;;;;9.67;7.40;;;;;;;;;;5110201;28;20203;-79
2023/08/06 06:29:01;;;;;;;8.77;7.57;;;;;;;;;;5109603;28;20199;-79
2023/08/06 06:31:29;;;;;;;10.13;8.77;;;;;;;;;;5111417;28;20195;-78
2023/08/06 06:33:56;;;;;;;11.60;8.47;;;;;;;;;;5092352;28;20705;-79
2023/08/06 06:36:23;;;;;;;7.90;7.10;;;;;;;;;;5108416;28;20686;-79
2023/08/06 06:38:50;;;;;;;8.77;7.70;;;;;;;;;;5113513;28;20195;-79
2023/08/06 06:41:17;;;;;;;11.63;7.27;;;;;;;;;;5111016;28;20674;-79
2023/08/06 06:43:43;;;;;;;11.40;7.13;;;;;;;;;;5112756;28;20598;-79
2023/08/06 06:46:10;;;;;;;8.60;7.33;;;;;;;;;;5109467;28;20203;-79
2023/08/06 06:48:38;;;;;;;9.47;8.53;;;;;;;;;;5092466;28;20196;-78
2023/08/06 06:51:05;;;;;;;16.80;10.20;;;;;;;;;;5096660;28;20216;-78
2023/08/06 06:53:32;;;;;;;11.87;9.67;;;;;;;;;;5092649;28;20568;-79
2023/08/06 06:56:03;;;;;;;11.70;9.63;;;;;;;;;;5111247;28;20200;-78
2023/08/06 06:58:30;;;;;;;9.90;9.00;;;;;;;;;;5109266;28;20196;-78
2023/08/06 07:00:57;;;;;;;10.53;9.50;;;;;;;;;;5096733;28;20234;-80
2023/08/06 07:03:24;;;;;;;11.40;10.20;;;;;;;;;;5112944;28;20195;-79
2023/08/06 07:05:52;;;;;;;12.17;10.87;;;;;;;;;;5110439;28;20662;-79
2023/08/06 07:08:19;;;;;;;11.87;11.03;;;;;;;;;;5101161;28;20199;-79
2023/08/06 07:10:46;;;;;;;11.60;10.40;;;;;;;;;;5107897;28;20187;-79
2023/08/06 07:13:13;;;;;;;11.53;10.10;;;;;;;;;;5112717;28;20253;-79
2023/08/06 07:15:40;;;;;;;11.40;10.40;;;;;;;;;;5105295;28;20678;-78
2023/08/06 07:18:06;;;;;;;11.93;10.77;;;;;;;;;;5099737;28;20192;-80
2023/08/06 07:20:34;;;;;;;12.37;11.10;;;;;;;;;;5110767;28;21263;-78
2023/08/06 07:23:02;;;;;;;14.30;9.60;;;;;;;;;;5102261;28;20193;-79
2023/08/06 07:25:29;;;;;;;16.57;11.40;;;;;;;;;;5098038;28;20227;-80
2023/08/06 07:27:56;;;;;;;10.20;9.13;;;;;;;;;;5098038;28;20199;-80
2023/08/06 07:30:23;;;;;;;10.20;9.07;;;;;;;;;;5094003;28;20212;-80
2023/08/06 07:32:50;;;;;;;12.10;9.63;;;;;;;;;;5091858;28;20231;-79
2023/08/06 07:35:17;;;;;;;10.73;9.50;;;;;;;;;;5108196;28;20219;-80
2023/08/06 07:37:44;;;;;;;12.40;9.57;;;;;;;;;;5109452;28;20226;-80
2023/08/06 07:40:13;;;;;;;10.70;9.80;;;;;;;;;;5100468;28;20195;-80
2023/08/06 07:42:40;;;;;;;10.80;9.70;;;;;;;;;;5111739;28;20192;-80
2023/08/06 07:45:09;;;;;;;11.17;9.63;;;;;;;;;;5094971;28;20204;-80
2023/08/06 07:47:35;;;;;;;11.13;10.00;;;;;;;;;;5101771;28;20207;-80
2023/08/06 07:50:02;;;;;;;11.23;10.13;;;;;;;;;;5110798;28;20206;-81
2023/08/06 07:52:29;;;;;;;9.13;8.50;;;;;;;;;;5110821;28;20228;-80
2023/08/06 07:54:56;;;;;;;9.77;9.03;;;;;;;;;;5106822;28;20273;-81
2023/08/06 07:57:24;;;;;;;9.67;8.70;;;;;;;;;;5103073;28;20203;-81
2023/08/06 07:59:51;;;;;;;12.83;9.70;;;;;;;;;;5101946;28;20206;-80
2023/08/06 08:02:18;;;;;;;10.00;9.00;;;;;;;;;;5110379;28;20203;-81
2023/08/06 08:04:47;;;;;;;10.23;9.33;;;;;;;;;;5110942;28;20206;-81
2023/08/06 08:07:14;;;;;;;10.43;9.37;;;;;;;;;;5111257;28;20203;-81
2023/08/06 08:09:40;;;;;;;9.77;8.70;;;;;;;;;;5098876;28;20207;-80
2023/08/06 08:12:08;;;;;;;14.33;9.10;;;;;;;;;;5104351;28;20196;-81
2023/08/06 08:14:36;;;;;;;9.87;9.03;;;;;;;;;;5103123;28;20728;-81
2023/08/06 08:17:04;;;;;;;10.27;9.20;;;;;;;;;;5111276;28;20195;-81
2023/08/06 08:19:31;;;;;;;10.53;9.60;;;;;;;;;;5098514;28;20196;-81
2023/08/06 08:21:58;;;;;;;10.33;9.17;;;;;;;;;;5109425;28;20203;-81
2023/08/06 08:24:25;;;;;;;11.17;10.00;;;;;;;;;;5096347;28;20211;-80
2023/08/06 08:26:52;;;;;;;9.00;8.30;;;;;;;;;;5108270;28;20198;-79
2023/08/06 08:29:20;;;;;;;11.27;8.80;;;;;;;;;;5101617;28;20201;-79
2023/08/06 08:31:50;;;;;;;10.17;9.17;;;;;;;;;;5099511;28;20200;-80
2023/08/06 08:34:16;;;;;;;10.50;9.43;;;;;;;;;;5095609;28;20220;-80
2023/08/06 08:36:43;;;;;;;11.30;10.27;;;;;;;;;;5102212;28;20262;-80
2023/08/06 08:39:10;;;;;;;11.27;9.70;;;;;;;;;;5094379;28;20212;-80
2023/08/06 08:41:39;;;;;;;13.27;10.43;;;;;;;;;;5095243;28;20188;-80
2023/08/06 08:44:09;;;;;;;12.37;9.80;;;;;;;;;;5111844;28;20196;-80
2023/08/06 08:46:38;;;;;;;12.83;9.30;;;;;;;;;;5112160;28;20265;-79
2023/08/06 08:49:06;;;;;;;13.37;10.40;;;;;;;;;;5108395;28;20199;-79
2023/08/06 08:51:34;;;;;;;11.90;10.90;;;;;;;;;;5089914;28;20235;-79
2023/08/06 08:54:03;;;;;;;11.77;10.60;;;;;;;;;;5108361;28;20192;-80
2023/08/06 08:56:31;;;;;;;11.63;10.60;;;;;;;;;;5098364;28;20200;-79
2023/08/06 08:58:58;;;;;;;11.07;10.17;;;;;;;;;;5103885;28;20199;-79
2023/08/06 09:01:25;;;;;;;13.97;11.10;;;;;;;;;;5105601;28;20211;-79
2023/08/06 09:03:53;;;;;;;13.27;10.67;;;;;;;;;;5114099;28;20654;-80
2023/08/06 09:06:22;;;;;;;12.37;11.03;;;;;;;;;;5114325;28;20571;-79
2023/08/06 09:09:07;;;;;;;12.93;11.63;;;;;;;;;;5113946;28;20191;-79
2023/08/06 09:11:39;;;;;;;11.90;10.40;;;;;;;;;;5099429;28;20200;-80
2023/08/06 09:14:08;;;;;;;11.37;10.47;;;;;;;;;;5093601;28;20189;-80
2023/08/06 09:16:35;;;;;;;11.57;10.47;;;;;;;;;;5107266;28;20200;-79
2023/08/06 09:19:08;;;;;;;12.80;11.60;;;;;;;;;;5104584;28;20199;-80
2023/08/06 09:21:38;;;;;;;15.57;11.43;;;;;;;;;;5105160;28;20226;-80
2023/08/06 09:24:09;;;;;;;14.90;13.50;;;;;;;;;;5109411;28;20210;-80
2023/08/06 09:26:36;;;;;;;15.50;13.97;;;;;;;;;;5113967;28;20234;-79
2023/08/06 09:29:03;;;;;;;17.50;13.83;;;;;;;;;;5110810;28;20193;-79
2023/08/06 09:31:34;;;;;;;15.57;14.03;;;;;;;;;;5103002;28;20195;-80
2023/08/06 09:34:01;;;;;;;13.60;12.63;;;;;;;;;;5113897;28;20307;-79
2023/08/06 09:36:28;;;;;;;15.20;13.80;;;;;;;;;;5113699;28;20222;-80
2023/08/06 09:38:56;;;;;;;13.37;12.27;;;;;;;;;;5113339;28;20196;-78
2023/08/06 09:41:29;;;;;;;13.20;12.10;;;;;;;;;;5102896;28;20192;-79
2023/08/06 09:43:56;;;;;;;14.03;11.53;;;;;;;;;;5110183;28;20569;-80
2023/08/06 09:46:23;;;;;;;13.20;12.07;;;;;;;;;;5113364;28;20199;-79
2023/08/06 09:48:51;;;;;;;14.93;13.43;;;;;;;;;;5101641;28;20198;-79
2023/08/06 09:51:18;;;;;;;14.83;13.37;;;;;;;;;;5113395;28;20227;-79
2023/08/06 09:53:45;;;;;;;14.80;13.40;;;;;;;;;;5093256;28;20196;-79
2023/08/06 09:56:14;;;;;;;16.67;14.97;;;;;;;;;;5105933;28;20219;-80
2023/08/06 09:58:41;;;;;;;15.13;13.93;;;;;;;;;;5100511;28;20195;-79
2023/08/06 10:01:08;;;;;;;17.70;16.00;;;;;;;;;;5098882;28;20196;-79
2023/08/06 10:03:35;;;;;;;16.97;15.17;;;;;;;;;;5113442;28;20202;-79
2023/08/06 10:06:06;;;;;;;17.73;16.20;;;;;;;;;;5113525;28;20209;-79
2023/08/06 10:08:32;;;;;;;20.63;18.73;;;;;;;;;;5104818;28;20192;-79
2023/08/06 10:10:59;;;;;;;18.67;16.90;;;;;;;;;;5108615;28;20354;-79
2023/08/06 10:13:28;;;;;;;19.70;17.77;;;;;;;;;;5103813;28;20210;-79
2023/08/06 10:15:54;;;;;;;18.70;16.98;;;;;;;;;;5107860;28;20234;-79
2023/08/06 10:18:22;;;;;;;25.17;22.50;;;;;;;;;;5103172;28;20203;-79
2023/08/06 10:20:49;;;;;;;18.67;17.08;;;;;;;;;;5109340;28;20195;-79
2023/08/06 10:23:17;;;;;;;16.35;14.95;;;;;;;;;;5112338;28;20547;-80
2023/08/06 10:25:44;;;;;;;19.60;17.77;;;;;;;;;;5110180;28;20293;-79
2023/08/06 10:28:13;;;;;;;16.75;15.23;;;;;;;;;;5102017;28;20199;-80
2023/08/06 10:30:46;;;;;;;19.50;17.15;;;;;;;;;;5100325;28;20253;-79
2023/08/06 10:33:13;;;;;;;14.55;13.32;;;;;;;;;;5112345;28;20206;-79
2023/08/06 10:35:43;;;;;;;13.10;12.00;;;;;;;;;;5098901;28;20219;-79
2023/08/06 10:38:13;;;;;;;12.38;11.27;;;;;;;;;;5112206;28;20652;-79
2023/08/06 10:40:43;;;;;;;11.38;10.38;;;;;;;;;;5107086;28;20197;-79
2023/08/06 10:43:26;;;;;;;11.45;10.35;;;;;;;;;;5091816;28;20200;-80
2023/08/06 10:45:54;;;;;;;7.90;6.07;;;;;;;;;;5092400;28;20211;-79
2023/08/06 10:48:30;;;;;;;3.55;3.25;;;;;;;;;;5091679;28;20689;-78
2023/08/06 10:50:57;;;;;;;4.03;2.73;;;;;;;;;;5091599;28;20200;-78
2023/08/06 10:53:24;;;;;;;7.07;3.37;;;;;;;;;;5105979;28;20192;-79
2023/08/06 10:55:51;;;;;;;3.43;2.70;;;;;;;;;;5102128;28;20230;-79
2023/08/06 10:58:18;;;;;;;4.23;2.97;;;;;;;;;;5093251;28;20581;-78
2023/08/06 11:00:45;;;;;;;15.50;4.57;;;;;;;;;;5103282;28;20271;-79
2023/08/06 11:03:13;;;;;;;6.43;3.70;;;;;;;;;;5094376;28;20551;-78
2023/08/06 11:05:40;;;;;;;4.27;3.10;;;;;;;;;;5104211;28;20199;-80
2023/08/06 11:08:07;;;;;;;4.00;3.70;;;;;;;;;;5106199;28;20199;-78
2023/08/06 11:10:34;;;;;;;4.87;4.47;;;;;;;;;;5091786;28;20727;-79
2023/08/06 11:13:02;;;;;;;8.83;5.03;;;;;;;;;;5105239;28;20192;-78
2023/08/06 11:15:29;;;;;;;5.30;4.90;;;;;;;;;;5103198;28;20745;-79
2023/08/06 11:17:56;;;;;;;7.17;5.07;;;;;;;;;;5098714;28;20206;-79
2023/08/06 11:20:24;;;;;;;5.37;4.87;;;;;;;;;;5111770;28;20195;-79
2023/08/06 11:22:51;;;;;;;6.20;5.70;;;;;;;;;;5097427;28;20270;-78
2023/08/06 11:25:22;;;;;;;5.90;5.27;;;;;;;;;;5100265;28;20216;-78
2023/08/06 11:27:49;;;;;;;5.73;5.33;;;;;;;;;;5110177;28;20223;-78
2023/08/06 11:30:16;;;;;;;6.43;5.83;;;;;;;;;;5098539;28;20200;-78
2023/08/06 11:32:47;;;;;;;5.33;4.93;;;;;;;;;;5096633;28;20196;-78
2023/08/06 11:35:15;;;;;;;5.63;5.13;;;;;;;;;;5100742;28;20220;-79
2023/08/06 11:37:46;;;;;;;5.03;4.43;;;;;;;;;;5112023;28;20195;-78
2023/08/06 11:40:16;;;;;;;4.70;4.30;;;;;;;;;;5106798;28;20200;-79
2023/08/06 11:42:43;;;;;;;4.67;4.27;;;;;;;;;;5103228;28;20203;-78
2023/08/06 11:45:10;;;;;;;4.30;3.97;;;;;;;;;;5105169;28;20249;-79
2023/08/06 11:47:47;;;;;;;5.17;4.70;;;;;;;;;;5103767;28;20327;-78
2023/08/06 11:50:23;;;;;;;5.73;5.13;;;;;;;;;;5104239;28;20203;-79
2023/08/06 11:52:54;;;;;;;5.23;3.97;;;;;;;;;;5105748;28;20218;-79
2023/08/06 11:55:24;;;;;;;4.93;4.43;;;;;;;;;;5101180;28;20746;-78
2023/08/06 11:57:51;;;;;;;4.90;4.40;;;;;;;;;;5106828;28;20285;-78
2023/08/06 12:00:19;;;;;;;4.33;4.03;;;;;;;;;;5111143;28;20221;-78
2023/08/06 12:02:49;;;;;;;4.27;3.20;;;;;;;;;;5109658;28;20217;-78
2023/08/06 12:05:16;;;;;;;3.47;3.27;;;;;;;;;;5110306;28;20248;-78
2023/08/06 12:07:45;;;;;;;2.87;2.67;;;;;;;;;;5099001;28;20670;-78
2023/08/06 12:10:14;;;;;;;2.50;2.30;;;;;;;;;;5091200;28;20196;-78
2023/08/06 12:12:41;;;;;;;2.50;2.30;;;;;;;;;;5103591;28;20192;-78
2023/08/06 12:15:09;;;;;;;2.90;2.70;;;;;;;;;;5090164;28;20208;-78
2023/08/06 12:17:37;;;;;;;1.90;1.80;;;;;;;;;;5095065;28;20570;-78
2023/08/06 12:20:04;;;;;;;2.10;1.83;;;;;;;;;;5098091;28;20204;-78
2023/08/06 12:22:34;;;;;;;5.18;2.03;;;;;;;;;;5090869;28;20232;-78
2023/08/06 12:25:02;;;;;;;3.30;3.10;;;;;;;;;;5104136;28;20212;-78
2023/08/06 12:27:30;;;;;;;2.40;2.17;;;;;;;;;;5110424;28;20290;-78
2023/08/06 12:29:57;;;;;;;2.53;2.33;;;;;;;;;;5110471;28;20196;-78
2023/08/06 12:32:23;;;;;;;2.50;2.30;;;;;;;;;;5109946;28;20203;-78
2023/08/06 12:34:50;;;;;;;2.75;2.35;;;;;;;;;;5109696;28;20196;-78
2023/08/06 12:37:17;;;;;;;2.58;2.33;;;;;;;;;;5097711;28;20227;-78
2023/08/06 12:39:44;;;;;;;4.72;2.20;;;;;;;;;;5115053;28;20203;-78
2023/08/06 12:42:11;;;;;;;1.90;1.80;;;;;;;;;;5104834;28;20196;-79
2023/08/06 12:44:39;;;;;;;2.03;1.85;;;;;;;;;;5116114;28;20196;-78
2023/08/06 12:47:05;;;;;;;1.98;1.88;;;;;;;;;;5114263;28;20198;-79
2023/08/06 12:49:33;;;;;;;2.55;2.35;;;;;;;;;;5114945;28;20202;-78
2023/08/06 12:52:00;;;;;;;2.30;2.10;;;;;;;;;;5108195;28;20220;-78
2023/08/06 12:54:28;;;;;;;1.98;1.80;;;;;;;;;;5103744;28;20252;-79
2023/08/06 12:56:55;;;;;;;1.95;1.85;;;;;;;;;;5115050;28;20250;-78
2023/08/06 12:59:23;;;;;;;2.08;1.88;;;;;;;;;;5104678;28;20662;-78
2023/08/06 13:01:51;;;;;;;2.40;2.25;;;;;;;;;;5094917;28;20208;-79
2023/08/06 13:04:18;;;;;;;2.30;2.20;;;;;;;;;;5114366;28;20207;-79
2023/08/06 13:06:45;;;;;;;2.70;2.50;;;;;;;;;;5109425;28;20192;-78
2023/08/06 13:09:11;;;;;;;2.45;2.10;;;;;;;;;;5093821;28;20199;-79
2023/08/06 13:11:39;;;;;;;1.85;1.75;;;;;;;;;;5094576;28;20283;-79
2023/08/06 13:14:07;;;;;;;2.58;2.38;;;;;;;;;;5093419;28;20200;-79
2023/08/06 13:16:35;;;;;;;2.15;2.05;;;;;;;;;;5103839;28;20702;-79
2023/08/06 13:19:03;;;;;;;2.38;2.10;;;;;;;;;;5094775;28;20192;-79
2023/08/06 13:21:34;;;;;;;2.63;2.13;;;;;;;;;;5093967;28;20193;-79
2023/08/06 13:24:02;;;;;;;2.50;2.35;;;;;;;;;;5098061;28;20223;-79
2023/08/06 13:26:29;;;;;;;2.45;2.25;;;;;;;;;;5114211;28;20624;-79
2023/08/06 13:28:56;;;;;;;2.70;2.58;;;;;;;;;;5114410;28;20191;-79
2023/08/06 13:31:22;;;;;;;3.40;3.10;;;;;;;;;;5113744;28;20596;-79
2023/08/06 13:33:49;;;;;;;2.67;2.47;;;;;;;;;;5101693;28;20196;-79
2023/08/06 13:36:18;;;;;;;2.65;2.45;;;;;;;;;;5110581;28;20211;-79
2023/08/06 13:38:45;;;;;;;2.63;2.42;;;;;;;;;;5113077;28;20206;-80
2023/08/06 13:41:11;;;;;;;2.80;2.40;;;;;;;;;;5094378;28;20197;-79
2023/08/06 13:43:38;;;;;;;2.70;2.30;;;;;;;;;;5093440;28;20200;-79
2023/08/06 13:46:05;;;;;;;2.83;2.63;;;;;;;;;;5092951;28;20539;-79
2023/08/06 13:48:32;;;;;;;2.75;2.55;;;;;;;;;;5104222;28;20249;-79
2023/08/06 13:50:59;;;;;;;3.20;2.60;;;;;;;;;;5099604;28;20208;-79
2023/08/06 13:53:29;;;;;;;2.97;2.70;;;;;;;;;;5092528;28;20196;-79
2023/08/06 13:55:56;;;;;;;2.97;2.78;;;;;;;;;;5104467;28;20685;-79
2023/08/06 13:58:23;;;;;;;2.50;2.30;;;;;;;;;;5114880;28;20195;-79
2023/08/06 14:00:52;;;;;;;1.95;1.85;;;;;;;;;;5104706;28;20203;-78
2023/08/06 14:03:19;;;;;;;2.42;2.22;;;;;;;;;;5094251;28;20216;-79
2023/08/06 14:05:46;;;;;;;3.10;2.78;;;;;;;;;;5114283;28;20211;-79
2023/08/06 14:08:13;;;;;;;2.70;2.47;;;;;;;;;;5114303;28;20195;-79
2023/08/06 14:10:41;;;;;;;2.85;2.65;;;;;;;;;;5103426;28;20196;-78
2023/08/06 14:13:08;;;;;;;9.60;7.57;;;;;;;;;;5099507;28;20207;-79
2023/08/06 14:15:35;;;;;;;2.83;2.63;;;;;;;;;;5113523;28;20199;-79
2023/08/06 14:18:02;;;;;;;3.83;2.70;;;;;;;;;;5112547;28;20215;-79
2023/08/06 14:20:29;;;;;;;2.70;2.50;;;;;;;;;;5108684;28;20199;-79
2023/08/06 14:22:56;;;;;;;3.10;2.80;;;;;;;;;;5100510;28;20198;-79
2023/08/06 14:25:23;;;;;;;3.25;2.42;;;;;;;;;;5113609;28;20191;-79
2023/08/06 14:27:51;;;;;;;4.47;3.15;;;;;;;;;;5114437;28;20196;-79
2023/08/06 14:30:18;;;;;;;3.65;2.75;;;;;;;;;;5111725;28;20195;-79
2023/08/06 14:32:45;;;;;;;2.45;2.33;;;;;;;;;;5112659;28;20222;-79
2023/08/06 14:35:11;;;;;;;2.90;2.70;;;;;;;;;;5103815;28;20563;-79
2023/08/06 14:37:39;;;;;;;3.25;3.05;;;;;;;;;;5105345;28;20250;-79